Time,TemperatureF,DewpointF,PressureIn,WindDirection,WindDirectionDegrees,WindSpeedMPH,WindSpeedGustMPH,Humidity,HourlyPrecipIn,Conditions,Clouds,dailyrainin,SolarRadiationWatts/m^2,SoftwareType,DateUTC
2015-07-28 00:00:00,77.4,69.0,30.00,ENE,59,0.0,0.0,75,0.00,,,0.64,0,weatherlink.com 1.10,2015-07-28 04:00:00,
2015-07-28 00:15:00,77.5,69.0,29.99,ENE,59,0.0,0.0,75,0.00,,,0.64,0,weatherlink.com 1.10,2015-07-28 04:15:00,
2015-07-28 00:30:00,77.5,69.0,29.99,ENE,59,0.0,0.0,75,0.00,,,0.64,0,weatherlink.com 1.10,2015-07-28 04:30:00,
2015-07-28 00:45:00,77.3,69.0,29.99,ENE,59,0.0,0.0,75,0.00,,,0.64,0,weatherlink.com 1.10,2015-07-28 04:45:00,
2015-07-28 01:00:00,77.1,69.0,29.99,ENE,59,0.0,0.0,75,0.00,,,0.64,0,weatherlink.com 1.10,2015-07-28 05:00:00,
2015-07-28 01:15:00,77.0,69.0,29.98,ENE,59,0.0,0.0,75,0.00,,,0.64,0,weatherlink.com 1.10,2015-07-28 05:15:00,
2015-07-28 01:30:00,76.9,68.0,29.98,ENE,59,0.0,0.0,75,0.00,,,0.64,0,weatherlink.com 1.10,2015-07-28 05:30:00,
2015-07-28 01:45:00,76.6,68.0,29.97,ENE,59,0.0,0.0,75,0.00,,,0.00,0,weatherlink.com 1.10,2015-07-28 05:45:00,
2015-07-28 02:00:00,76.3,68.0,29.97,ENE,59,0.0,0.0,75,0.00,,,0.00,0,weatherlink.com 1.10,2015-07-28 06:00:00,
2015-07-28 02:15:00,76.1,68.0,29.97,ENE,59,0.0,0.0,75,0.00,,,0.00,0,weatherlink.com 1.10,2015-07-28 06:15:00,
2015-07-28 02:30:00,76.0,68.0,29.97,ENE,59,0.0,0.0,75,0.00,,,0.00,0,weatherlink.com 1.10,2015-07-28 06:30:00,
2015-07-28 02:45:00,76.1,68.0,29.96,ENE,59,0.0,0.0,75,0.00,,,0.00,0,weatherlink.com 1.10,2015-07-28 06:45:00,
2015-07-28 03:00:00,76.2,68.0,29.96,ENE,59,0.0,0.0,75,0.00,,,0.00,0,weatherlink.com 1.10,2015-07-28 07:00:00,
2015-07-28 03:15:00,76.0,68.0,29.96,ENE,59,0.0,0.0,75,0.00,,,0.00,0,weatherlink.com 1.10,2015-07-28 07:15:00,
2015-07-28 03:30:00,75.9,67.0,29.96,ENE,59,0.0,0.0,75,0.00,,,0.00,0,weatherlink.com 1.10,2015-07-28 07:30:00,
2015-07-28 03:45:00,75.8,67.0,29.96,ENE,59,0.0,0.0,75,0.00,,,0.00,0,weatherlink.com 1.10,2015-07-28 07:45:00,
2015-07-28 04:00:00,75.6,67.0,29.96,ENE,59,0.0,0.0,75,0.00,,,0.00,0,weatherlink.com 1.10,2015-07-28 08:00:00,
2015-07-28 04:15:00,75.6,67.0,29.96,ENE,59,0.0,0.0,75,0.00,,,0.00,0,weatherlink.com 1.10,2015-07-28 08:15:00,
2015-07-28 04:30:00,75.4,67.0,29.96,ENE,59,0.0,0.0,75,0.00,,,0.00,0,weatherlink.com 1.10,2015-07-28 08:30:00,
2015-07-28 04:45:00,75.2,67.0,29.96,ENE,59,0.0,0.0,75,0.00,,,0.00,0,weatherlink.com 1.10,2015-07-28 08:45:00,
2015-07-28 05:00:00,75.1,67.0,29.97,ENE,59,0.0,0.0,75,0.00,,,0.00,0,weatherlink.com 1.10,2015-07-28 09:00:00,
2015-07-28 05:15:00,75.3,67.0,29.97,ENE,59,0.0,0.0,75,0.00,,,0.00,0,weatherlink.com 1.10,2015-07-28 09:15:00,
2015-07-28 05:30:00,75.6,67.0,29.97,ENE,59,0.0,1.0,75,0.00,,,0.00,0,weatherlink.com 1.10,2015-07-28 09:30:00,
2015-07-28 06:00:00,75.4,67.0,29.98,ENE,59,0.0,0.0,75,0.00,,,0.00,0,weatherlink.com 1.10,2015-07-28 10:00:00,
2015-07-28 06:15:00,75.3,67.0,29.98,ENE,59,0.0,0.0,75,0.00,,,0.00,0,weatherlink.com 1.10,2015-07-28 10:15:00,
2015-07-28 06:45:00,75.2,67.0,29.98,ENE,59,0.0,0.0,75,0.00,,,0.00,0,weatherlink.com 1.10,2015-07-28 10:45:00,
2015-07-28 07:01:00,75.1,67.0,29.99,ENE,59,0.0,0.0,75,0.00,,,0.00,12,weatherlink.com 1.10,2015-07-28 11:01:00,
2015-07-28 07:46:00,77.1,68.0,30.01,ENE,59,0.0,0.0,74,0.00,,,0.00,120,weatherlink.com 1.10,2015-07-28 11:46:00,
2015-07-28 08:01:00,78.0,69.0,30.01,ENE,59,0.0,2.0,74,0.00,,,0.00,121,weatherlink.com 1.10,2015-07-28 12:01:00,
2015-07-28 08:16:00,78.5,70.0,30.01,SSE,155,0.0,2.0,74,0.00,,,0.00,121,weatherlink.com 1.10,2015-07-28 12:16:00,
2015-07-28 08:46:00,80.4,71.0,30.02,SSE,157,0.0,3.0,73,0.00,,,0.00,355,weatherlink.com 1.10,2015-07-28 12:46:00,
2015-07-28 09:01:00,84.1,75.0,30.02,South,174,0.0,4.0,74,0.00,,,0.00,450,weatherlink.com 1.10,2015-07-28 13:01:00,
2015-07-28 09:16:00,86.0,77.0,30.02,SSW,202,1.0,5.0,74,0.00,,,0.00,348,weatherlink.com 1.10,2015-07-28 13:16:00,
2015-07-28 09:46:00,84.9,76.0,30.02,SW,221,0.0,4.0,74,0.00,,,0.00,279,weatherlink.com 1.10,2015-07-28 13:46:00,
2015-07-28 10:01:00,85.1,76.0,30.02,SW,223,0.0,4.0,74,0.00,,,0.00,237,weatherlink.com 1.10,2015-07-28 14:01:00,
2015-07-28 10:16:00,85.0,76.0,30.02,West,271,2.0,6.0,74,0.00,,,0.00,272,weatherlink.com 1.10,2015-07-28 14:16:00,
2015-07-28 10:31:00,86.4,77.0,30.01,SSW,200,0.0,5.0,73,0.00,,,0.00,615,weatherlink.com 1.10,2015-07-28 14:31:00,
2015-07-28 10:46:00,88.1,78.0,30.02,West,278,0.0,7.0,71,0.00,,,0.00,729,weatherlink.com 1.10,2015-07-28 14:46:00,
2015-07-28 11:01:00,89.1,78.0,30.02,South,181,0.0,4.0,70,0.00,,,0.00,738,weatherlink.com 1.10,2015-07-28 15:01:00,
2015-07-28 11:16:00,90.1,79.0,30.02,West,276,2.0,7.0,69,0.00,,,0.00,740,weatherlink.com 1.10,2015-07-28 15:16:00,
2015-07-28 11:31:00,91.0,79.0,30.01,WSW,252,1.0,5.0,68,0.00,,,0.00,865,weatherlink.com 1.10,2015-07-28 15:31:00,
2015-07-28 11:47:00,91.8,78.0,30.01,WSW,240,1.0,6.0,65,0.00,,,0.00,911,weatherlink.com 1.10,2015-07-28 15:47:00,
2015-07-28 12:02:00,92.9,78.0,30.01,SSW,196,2.0,3.0,63,0.00,,,0.00,912,weatherlink.com 1.10,2015-07-28 16:02:00,
2015-07-28 12:17:00,93.8,78.0,30.01,WSW,258,1.0,7.0,60,0.00,,,0.00,984,weatherlink.com 1.10,2015-07-28 16:17:00,
2015-07-28 12:32:00,93.2,77.0,30.00,SSW,195,1.0,10.0,59,0.00,,,0.00,758,weatherlink.com 1.10,2015-07-28 16:32:00,
2015-07-28 12:47:00,93.0,76.0,29.99,South,180,2.0,10.0,57,0.00,,,0.00,844,weatherlink.com 1.10,2015-07-28 16:47:00,
2015-07-28 13:02:00,92.6,75.0,29.99,South,182,2.0,9.0,56,0.00,,,0.00,497,weatherlink.com 1.10,2015-07-28 17:02:00,
2015-07-28 13:17:00,92.5,75.0,29.99,SSW,207,2.0,7.0,56,0.00,,,0.00,394,weatherlink.com 1.10,2015-07-28 17:17:00,
2015-07-28 13:47:00,92.1,73.0,29.99,SSW,211,1.0,6.0,54,0.00,,,0.00,547,weatherlink.com 1.10,2015-07-28 17:47:00,
2015-07-28 14:02:00,94.2,75.0,29.98,SW,232,1.0,6.0,53,0.00,,,0.00,909,weatherlink.com 1.10,2015-07-28 18:02:00,
2015-07-28 14:17:00,95.7,75.0,29.98,SW,236,4.0,5.0,52,0.00,,,0.00,962,weatherlink.com 1.10,2015-07-28 18:17:00,
2015-07-28 14:32:00,95.8,77.0,29.98,ESE,103,0.0,5.0,55,0.00,,,0.00,953,weatherlink.com 1.10,2015-07-28 18:32:00,
2015-07-28 14:47:00,96.5,75.0,29.97,SE,141,1.0,6.0,50,0.00,,,0.00,956,weatherlink.com 1.10,2015-07-28 18:47:00,
2015-07-28 15:02:00,96.8,76.0,29.96,WSW,240,1.0,12.0,51,0.00,,,0.00,930,weatherlink.com 1.10,2015-07-28 19:02:00,
2015-07-28 15:17:00,96.0,76.0,29.95,SSE,147,1.0,7.0,53,0.00,,,0.00,599,weatherlink.com 1.10,2015-07-28 19:17:00,
2015-07-28 15:33:00,96.8,75.0,29.94,SSW,207,3.0,7.0,50,0.00,,,0.00,888,weatherlink.com 1.10,2015-07-28 19:33:00,
2015-07-28 15:47:00,96.5,75.0,29.94,SW,236,1.0,8.0,50,0.00,,,0.00,874,weatherlink.com 1.10,2015-07-28 19:47:00,
2015-07-28 16:03:00,96.4,75.0,29.94,SSE,165,1.0,7.0,51,0.00,,,0.00,302,weatherlink.com 1.10,2015-07-28 20:03:00,
2015-07-28 16:17:00,96.2,75.0,29.93,South,175,2.0,10.0,51,0.00,,,0.00,817,weatherlink.com 1.10,2015-07-28 20:17:00,
2015-07-28 16:32:00,95.6,75.0,29.93,SSW,209,1.0,8.0,51,0.00,,,0.00,193,weatherlink.com 1.10,2015-07-28 20:32:00,
2015-07-28 16:47:00,93.3,78.0,29.94,ESE,106,4.0,7.0,62,0.00,,,0.00,204,weatherlink.com 1.10,2015-07-28 20:47:00,
2015-07-28 17:02:00,95.0,74.0,29.94,WSW,238,0.0,10.0,51,0.00,,,0.00,151,weatherlink.com 1.10,2015-07-28 21:02:00,
2015-07-28 17:17:00,96.7,73.0,29.93,South,189,3.0,9.0,47,0.00,,,0.00,199,weatherlink.com 1.10,2015-07-28 21:17:00,
2015-07-28 17:32:00,94.2,73.0,29.93,WSW,238,1.0,5.0,50,0.00,,,0.00,135,weatherlink.com 1.10,2015-07-28 21:32:00,
2015-07-28 17:49:00,94.2,73.0,29.93,South,184,0.0,8.0,50,0.00,,,0.00,98,weatherlink.com 1.10,2015-07-28 21:49:00,
2015-07-28 18:02:00,94.0,74.0,29.93,SSW,194,0.0,8.0,52,0.00,,,0.00,149,weatherlink.com 1.10,2015-07-28 22:02:00,
2015-07-28 18:17:00,93.2,77.0,29.93,South,178,2.0,6.0,59,0.00,,,0.00,165,weatherlink.com 1.10,2015-07-28 22:17:00,
2015-07-28 18:32:00,92.1,73.0,29.93,SE,134,1.0,7.0,53,0.00,,,0.00,120,weatherlink.com 1.10,2015-07-28 22:32:00,
2015-07-28 18:47:00,93.4,72.0,29.93,SSW,202,0.0,9.0,50,0.00,,,0.00,83,weatherlink.com 1.10,2015-07-28 22:47:00,
2015-07-28 19:02:00,92.8,72.0,29.93,SW,234,1.0,4.0,50,0.00,,,0.00,62,weatherlink.com 1.10,2015-07-28 23:02:00,
2015-07-28 19:17:00,92.3,72.0,29.94,WSW,239,0.0,4.0,52,0.00,,,0.00,39,weatherlink.com 1.10,2015-07-28 23:17:00,
2015-07-28 19:32:00,91.6,73.0,29.94,SSW,193,0.0,2.0,54,0.00,,,0.00,32,weatherlink.com 1.10,2015-07-28 23:32:00,
2015-07-28 19:47:00,91.1,73.0,29.95,WSW,248,0.0,3.0,56,0.00,,,0.00,18,weatherlink.com 1.10,2015-07-28 23:47:00,
2015-07-28 20:02:00,90.5,74.0,29.95,WSW,242,0.0,4.0,59,0.00,,,0.00,0,weatherlink.com 1.10,2015-07-29 00:02:00,
2015-07-28 20:17:00,89.9,75.0,29.96,WSW,243,0.0,2.0,61,0.00,,,0.00,0,weatherlink.com 1.10,2015-07-29 00:17:00,
2015-07-28 20:32:00,89.0,75.0,29.96,WSW,243,0.0,1.0,63,0.00,,,0.00,0,weatherlink.com 1.10,2015-07-29 00:32:00,
2015-07-28 20:47:00,88.3,75.0,29.97,WSW,244,0.0,1.0,65,0.00,,,0.00,0,weatherlink.com 1.10,2015-07-29 00:47:00,
2015-07-28 21:02:00,87.5,75.0,29.98,WSW,243,0.0,0.0,67,0.00,,,0.00,0,weatherlink.com 1.10,2015-07-29 01:02:00,
2015-07-28 21:17:00,86.8,76.0,29.98,WSW,243,0.0,1.0,69,0.00,,,0.00,0,weatherlink.com 1.10,2015-07-29 01:17:00,
2015-07-28 21:32:00,86.2,75.0,29.98,WSW,244,0.0,2.0,70,0.00,,,0.00,0,weatherlink.com 1.10,2015-07-29 01:32:00,
2015-07-28 21:47:00,85.7,75.0,29.98,WSW,246,0.0,1.0,71,0.00,,,0.00,0,weatherlink.com 1.10,2015-07-29 01:47:00,